sensor_id;sensor_type;location;lat;lon;timestamp;temperature;humidity
20035;DHT22;10178;48.034;9.800;2022-07-29T00:02:08;24.90;99.90
20035;DHT22;10178;48.034;9.800;2022-07-29T00:04:37;24.80;99.90
20035;DHT22;10178;48.034;9.800;2022-07-29T00:07:04;24.80;99.90
20035;DHT22;10178;48.034;9.800;2022-07-29T00:09:30;24.80;99.90
20035;DHT22;10178;48.034;9.800;2022-07-29T00:11:59;24.70;99.90
20035;DHT22;10178;48.034;9.800;2022-07-29T00:14:25;24.70;99.90
20035;DHT22;10178;48.034;9.800;2022-07-29T00:16:51;24.70;99.90
20035;DHT22;10178;48.034;9.800;2022-07-29T00:19:17;24.70;99.90
20035;DHT22;10178;48.034;9.800;2022-07-29T00:21:42;24.70;99.90
20035;DHT22;10178;48.034;9.800;2022-07-29T00:24:08;24.60;99.90
20035;DHT22;10178;48.034;9.800;2022-07-29T00:26:34;24.60;99.90
20035;DHT22;10178;48.034;9.800;2022-07-29T00:29:00;24.60;99.90
20035;DHT22;10178;48.034;9.800;2022-07-29T00:31:26;24.50;99.90
20035;DHT22;10178;48.034;9.800;2022-07-29T00:33:52;24.50;99.90
20035;DHT22;10178;48.034;9.800;2022-07-29T00:36:17;24.50;99.90
20035;DHT22;10178;48.034;9.800;2022-07-29T00:38:43;24.50;99.90
20035;DHT22;10178;48.034;9.800;2022-07-29T00:41:11;24.50;99.90
20035;DHT22;10178;48.034;9.800;2022-07-29T00:43:36;24.40;99.90
20035;DHT22;10178;48.034;9.800;2022-07-29T00:46:02;24.40;99.90
20035;DHT22;10178;48.034;9.800;2022-07-29T00:48:27;24.20;99.90
20035;DHT22;10178;48.034;9.800;2022-07-29T00:50:53;24.20;99.90
20035;DHT22;10178;48.034;9.800;2022-07-29T00:53:20;24.20;99.90
20035;DHT22;10178;48.034;9.800;2022-07-29T00:55:47;23.90;99.90
20035;DHT22;10178;48.034;9.800;2022-07-29T00:58:12;24.00;99.90
20035;DHT22;10178;48.034;9.800;2022-07-29T01:00:41;24.10;99.90
20035;DHT22;10178;48.034;9.800;2022-07-29T01:03:07;24.10;99.90
20035;DHT22;10178;48.034;9.800;2022-07-29T01:05:34;24.20;99.90
20035;DHT22;10178;48.034;9.800;2022-07-29T01:08:00;24.10;99.90
20035;DHT22;10178;48.034;9.800;2022-07-29T01:10:27;24.10;99.90
20035;DHT22;10178;48.034;9.800;2022-07-29T01:12:56;24.10;99.90
20035;DHT22;10178;48.034;9.800;2022-07-29T01:15:22;24.00;99.90
20035;DHT22;10178;48.034;9.800;2022-07-29T01:17:52;23.50;99.90
20035;DHT22;10178;48.034;9.800;2022-07-29T01:20:26;23.70;99.90
20035;DHT22;10178;48.034;9.800;2022-07-29T01:28:45;23.80;99.90
20035;DHT22;10178;48.034;9.800;2022-07-29T01:31:16;23.80;99.90
20035;DHT22;10178;48.034;9.800;2022-07-29T01:33:50;23.80;99.90
20035;DHT22;10178;48.034;9.800;2022-07-29T01:36:36;23.80;99.90
20035;DHT22;10178;48.034;9.800;2022-07-29T01:39:12;23.80;99.90
20035;DHT22;10178;48.034;9.800;2022-07-29T01:41:50;23.80;99.90
20035;DHT22;10178;48.034;9.800;2022-07-29T01:44:45;23.80;99.90
20035;DHT22;10178;48.034;9.800;2022-07-29T01:47:15;23.80;99.90
20035;DHT22;10178;48.034;9.800;2022-07-29T01:49:47;23.70;99.90
20035;DHT22;10178;48.034;9.800;2022-07-29T01:52:35;23.70;99.90
20035;DHT22;10178;48.034;9.800;2022-07-29T01:55:11;23.70;99.90
20035;DHT22;10178;48.034;9.800;2022-07-29T01:57:42;23.60;99.90
20035;DHT22;10178;48.034;9.800;2022-07-29T02:00:09;23.60;99.90
20035;DHT22;10178;48.034;9.800;2022-07-29T02:02:35;23.60;99.90
20035;DHT22;10178;48.034;9.800;2022-07-29T02:05:05;23.60;99.90
20035;DHT22;10178;48.034;9.800;2022-07-29T02:07:33;23.50;99.90
20035;DHT22;10178;48.034;9.800;2022-07-29T02:10:00;23.50;99.90
20035;DHT22;10178;48.034;9.800;2022-07-29T02:12:29;23.50;99.90
20035;DHT22;10178;48.034;9.800;2022-07-29T02:14:56;23.50;99.90
20035;DHT22;10178;48.034;9.800;2022-07-29T02:17:33;23.40;99.90
20035;DHT22;10178;48.034;9.800;2022-07-29T02:20:02;23.40;99.90
20035;DHT22;10178;48.034;9.800;2022-07-29T02:22:33;23.40;99.90
20035;DHT22;10178;48.034;9.800;2022-07-29T02:25:01;23.40;99.90
20035;DHT22;10178;48.034;9.800;2022-07-29T02:27:28;23.40;99.90
20035;DHT22;10178;48.034;9.800;2022-07-29T02:29:54;23.30;99.90
20035;DHT22;10178;48.034;9.800;2022-07-29T02:32:21;23.30;99.90
20035;DHT22;10178;48.034;9.800;2022-07-29T02:34:49;23.30;99.90
20035;DHT22;10178;48.034;9.800;2022-07-29T02:37:16;23.20;99.90
20035;DHT22;10178;48.034;9.800;2022-07-29T02:39:43;23.20;99.90
20035;DHT22;10178;48.034;9.800;2022-07-29T02:42:12;23.20;99.90
20035;DHT22;10178;48.034;9.800;2022-07-29T02:44:38;23.20;99.90
20035;DHT22;10178;48.034;9.800;2022-07-29T02:47:13;23.10;99.90
20035;DHT22;10178;48.034;9.800;2022-07-29T02:49:59;23.10;99.90
20035;DHT22;10178;48.034;9.800;2022-07-29T02:52:34;23.10;99.90
20035;DHT22;10178;48.034;9.800;2022-07-29T02:55:16;22.70;99.90
20035;DHT22;10178;48.034;9.800;2022-07-29T02:58:05;22.80;99.90
20035;DHT22;10178;48.034;9.800;2022-07-29T03:00:35;22.80;99.90
20035;DHT22;10178;48.034;9.800;2022-07-29T03:03:04;22.80;99.90
20035;DHT22;10178;48.034;9.800;2022-07-29T03:05:31;22.90;99.90
20035;DHT22;10178;48.034;9.800;2022-07-29T03:08:10;22.90;99.90
20035;DHT22;10178;48.034;9.800;2022-07-29T03:10:38;22.90;99.90
20035;DHT22;10178;48.034;9.800;2022-07-29T03:13:05;22.90;99.90
20035;DHT22;10178;48.034;9.800;2022-07-29T03:15:31;22.80;99.90
20035;DHT22;10178;48.034;9.800;2022-07-29T03:17:58;22.80;99.90
20035;DHT22;10178;48.034;9.800;2022-07-29T03:20:25;22.80;99.90
20035;DHT22;10178;48.034;9.800;2022-07-29T03:22:51;22.80;99.90
20035;DHT22;10178;48.034;9.800;2022-07-29T03:25:18;22.60;99.90
20035;DHT22;10178;48.034;9.800;2022-07-29T03:27:45;22.60;99.90
20035;DHT22;10178;48.034;9.800;2022-07-29T03:30:12;22.60;99.90
20035;DHT22;10178;48.034;9.800;2022-07-29T03:32:39;22.70;99.90
20035;DHT22;10178;48.034;9.800;2022-07-29T03:35:05;22.70;99.90
20035;DHT22;10178;48.034;9.800;2022-07-29T03:37:31;22.70;99.90
20035;DHT22;10178;48.034;9.800;2022-07-29T03:39:58;22.70;99.90
20035;DHT22;10178;48.034;9.800;2022-07-29T03:42:28;22.60;99.90
20035;DHT22;10178;48.034;9.800;2022-07-29T03:44:57;22.70;99.90
20035;DHT22;10178;48.034;9.800;2022-07-29T03:47:26;22.60;99.90
20035;DHT22;10178;48.034;9.800;2022-07-29T03:49:56;22.60;99.90
20035;DHT22;10178;48.034;9.800;2022-07-29T03:52:22;22.60;99.90
20035;DHT22;10178;48.034;9.800;2022-07-29T03:54:48;22.50;99.90
20035;DHT22;10178;48.034;9.800;2022-07-29T03:57:15;22.50;99.90
20035;DHT22;10178;48.034;9.800;2022-07-29T03:59:42;22.50;99.90
20035;DHT22;10178;48.034;9.800;2022-07-29T04:02:09;22.50;99.90
20035;DHT22;10178;48.034;9.800;2022-07-29T04:04:36;22.50;99.90
20035;DHT22;10178;48.034;9.800;2022-07-29T04:07:02;22.40;99.90
20035;DHT22;10178;48.034;9.800;2022-07-29T04:09:28;22.30;99.90
20035;DHT22;10178;48.034;9.800;2022-07-29T04:11:54;22.30;99.90
20035;DHT22;10178;48.034;9.800;2022-07-29T04:14:20;22.30;99.90
20035;DHT22;10178;48.034;9.800;2022-07-29T04:16:46;22.40;99.90
20035;DHT22;10178;48.034;9.800;2022-07-29T04:19:12;22.40;99.90
20035;DHT22;10178;48.034;9.800;2022-07-29T04:21:39;22.40;99.90
20035;DHT22;10178;48.034;9.800;2022-07-29T04:24:05;22.40;99.90
20035;DHT22;10178;48.034;9.800;2022-07-29T04:26:31;22.40;99.90
20035;DHT22;10178;48.034;9.800;2022-07-29T04:28:57;22.30;99.90
20035;DHT22;10178;48.034;9.800;2022-07-29T04:31:22;22.30;99.90
20035;DHT22;10178;48.034;9.800;2022-07-29T04:33:48;22.30;99.90
20035;DHT22;10178;48.034;9.800;2022-07-29T04:36:14;22.30;99.90
20035;DHT22;10178;48.034;9.800;2022-07-29T04:38:39;22.30;99.90
20035;DHT22;10178;48.034;9.800;2022-07-29T04:41:05;22.30;99.90
20035;DHT22;10178;48.034;9.800;2022-07-29T04:43:32;22.30;99.90
20035;DHT22;10178;48.034;9.800;2022-07-29T04:45:59;22.30;99.90
20035;DHT22;10178;48.034;9.800;2022-07-29T04:48:25;22.30;99.90
20035;DHT22;10178;48.034;9.800;2022-07-29T04:50:51;22.30;99.90
20035;DHT22;10178;48.034;9.800;2022-07-29T04:53:17;22.30;99.90
20035;DHT22;10178;48.034;9.800;2022-07-29T04:55:43;22.30;99.90
20035;DHT22;10178;48.034;9.800;2022-07-29T04:58:10;22.30;99.90
20035;DHT22;10178;48.034;9.800;2022-07-29T05:00:36;22.20;99.90
20035;DHT22;10178;48.034;9.800;2022-07-29T05:03:01;22.30;99.90
20035;DHT22;10178;48.034;9.800;2022-07-29T05:05:27;22.30;99.90
20035;DHT22;10178;48.034;9.800;2022-07-29T05:07:53;22.30;99.90
20035;DHT22;10178;48.034;9.800;2022-07-29T05:10:18;22.30;99.90
20035;DHT22;10178;48.034;9.800;2022-07-29T05:12:44;22.30;99.90
20035;DHT22;10178;48.034;9.800;2022-07-29T05:15:10;22.30;99.90
20035;DHT22;10178;48.034;9.800;2022-07-29T05:17:35;22.30;99.90
20035;DHT22;10178;48.034;9.800;2022-07-29T05:20:01;22.20;99.90
20035;DHT22;10178;48.034;9.800;2022-07-29T05:22:27;22.20;99.90
20035;DHT22;10178;48.034;9.800;2022-07-29T05:24:52;22.30;99.90
20035;DHT22;10178;48.034;9.800;2022-07-29T05:27:19;22.30;99.90
20035;DHT22;10178;48.034;9.800;2022-07-29T05:29:44;22.30;99.90
20035;DHT22;10178;48.034;9.800;2022-07-29T05:32:10;22.30;99.90
20035;DHT22;10178;48.034;9.800;2022-07-29T05:34:35;22.30;99.90
20035;DHT22;10178;48.034;9.800;2022-07-29T05:37:01;22.30;99.90
20035;DHT22;10178;48.034;9.800;2022-07-29T05:39:27;22.30;99.90
20035;DHT22;10178;48.034;9.800;2022-07-29T05:41:52;22.30;99.90
20035;DHT22;10178;48.034;9.800;2022-07-29T05:44:18;22.30;99.90
20035;DHT22;10178;48.034;9.800;2022-07-29T05:46:44;22.30;99.90
20035;DHT22;10178;48.034;9.800;2022-07-29T05:49:09;22.30;99.90
20035;DHT22;10178;48.034;9.800;2022-07-29T05:51:35;22.30;99.90
20035;DHT22;10178;48.034;9.800;2022-07-29T05:54:01;22.30;99.90
20035;DHT22;10178;48.034;9.800;2022-07-29T05:56:27;22.30;99.90
20035;DHT22;10178;48.034;9.800;2022-07-29T05:58:53;22.30;99.90
20035;DHT22;10178;48.034;9.800;2022-07-29T06:01:19;22.30;99.90
20035;DHT22;10178;48.034;9.800;2022-07-29T06:03:45;22.30;99.90
20035;DHT22;10178;48.034;9.800;2022-07-29T06:06:10;22.30;99.90
20035;DHT22;10178;48.034;9.800;2022-07-29T06:08:37;22.30;99.90
20035;DHT22;10178;48.034;9.800;2022-07-29T06:11:04;22.30;99.90
20035;DHT22;10178;48.034;9.800;2022-07-29T06:13:31;22.30;99.90
20035;DHT22;10178;48.034;9.800;2022-07-29T06:15:57;22.30;99.90
20035;DHT22;10178;48.034;9.800;2022-07-29T06:18:23;22.20;99.90
20035;DHT22;10178;48.034;9.800;2022-07-29T06:20:53;22.30;99.90
20035;DHT22;10178;48.034;9.800;2022-07-29T06:23:20;22.20;99.90
20035;DHT22;10178;48.034;9.800;2022-07-29T06:25:46;22.30;99.90
20035;DHT22;10178;48.034;9.800;2022-07-29T06:28:12;22.30;99.90
20035;DHT22;10178;48.034;9.800;2022-07-29T06:30:39;22.30;99.90
20035;DHT22;10178;48.034;9.800;2022-07-29T06:33:05;22.30;99.90
20035;DHT22;10178;48.034;9.800;2022-07-29T06:35:33;22.30;99.90
20035;DHT22;10178;48.034;9.800;2022-07-29T06:38:00;22.30;99.90
20035;DHT22;10178;48.034;9.800;2022-07-29T06:40:26;22.30;99.90
20035;DHT22;10178;48.034;9.800;2022-07-29T06:43:10;22.30;99.90
20035;DHT22;10178;48.034;9.800;2022-07-29T06:45:36;22.30;99.90
20035;DHT22;10178;48.034;9.800;2022-07-29T06:48:02;22.30;99.90
20035;DHT22;10178;48.034;9.800;2022-07-29T06:50:27;22.30;99.90
20035;DHT22;10178;48.034;9.800;2022-07-29T06:52:53;22.30;99.90
20035;DHT22;10178;48.034;9.800;2022-07-29T06:55:19;22.30;99.90
20035;DHT22;10178;48.034;9.800;2022-07-29T06:57:45;22.30;99.90
20035;DHT22;10178;48.034;9.800;2022-07-29T07:00:12;22.30;99.90
20035;DHT22;10178;48.034;9.800;2022-07-29T07:02:38;22.40;99.90
20035;DHT22;10178;48.034;9.800;2022-07-29T07:05:04;22.40;99.90
20035;DHT22;10178;48.034;9.800;2022-07-29T07:07:30;22.50;99.90
20035;DHT22;10178;48.034;9.800;2022-07-29T07:09:56;22.60;99.90
20035;DHT22;10178;48.034;9.800;2022-07-29T07:12:22;22.80;99.90
20035;DHT22;10178;48.034;9.800;2022-07-29T07:14:48;22.90;99.90
20035;DHT22;10178;48.034;9.800;2022-07-29T07:17:13;22.90;99.90
20035;DHT22;10178;48.034;9.800;2022-07-29T07:19:39;22.90;99.90
20035;DHT22;10178;48.034;9.800;2022-07-29T07:22:04;22.80;99.90
20035;DHT22;10178;48.034;9.800;2022-07-29T07:24:30;22.80;99.90
20035;DHT22;10178;48.034;9.800;2022-07-29T07:26:56;22.70;99.90
20035;DHT22;10178;48.034;9.800;2022-07-29T07:29:22;22.70;99.90
20035;DHT22;10178;48.034;9.800;2022-07-29T07:31:47;22.70;99.90
20035;DHT22;10178;48.034;9.800;2022-07-29T07:34:13;22.70;99.90
20035;DHT22;10178;48.034;9.800;2022-07-29T07:36:40;22.70;99.90
20035;DHT22;10178;48.034;9.800;2022-07-29T07:39:06;22.80;99.90
20035;DHT22;10178;48.034;9.800;2022-07-29T07:41:32;22.70;99.90
20035;DHT22;10178;48.034;9.800;2022-07-29T07:43:58;22.80;99.90
20035;DHT22;10178;48.034;9.800;2022-07-29T07:46:24;22.80;99.90
20035;DHT22;10178;48.034;9.800;2022-07-29T07:48:49;22.90;99.90
20035;DHT22;10178;48.034;9.800;2022-07-29T07:51:15;23.00;99.90
20035;DHT22;10178;48.034;9.800;2022-07-29T07:53:41;23.00;99.90
20035;DHT22;10178;48.034;9.800;2022-07-29T07:56:06;23.20;99.90
20035;DHT22;10178;48.034;9.800;2022-07-29T07:58:32;23.30;99.90
20035;DHT22;10178;48.034;9.800;2022-07-29T08:01:00;23.30;99.90
20035;DHT22;10178;48.034;9.800;2022-07-29T08:03:25;23.30;99.90
20035;DHT22;10178;48.034;9.800;2022-07-29T08:05:51;23.20;99.90
20035;DHT22;10178;48.034;9.800;2022-07-29T08:08:17;23.10;99.90
20035;DHT22;10178;48.034;9.800;2022-07-29T08:10:43;23.00;99.90
20035;DHT22;10178;48.034;9.800;2022-07-29T08:13:19;23.00;99.90
20035;DHT22;10178;48.034;9.800;2022-07-29T08:15:45;23.00;99.90
20035;DHT22;10178;48.034;9.800;2022-07-29T08:18:14;22.90;99.90
20035;DHT22;10178;48.034;9.800;2022-07-29T08:20:40;22.70;99.90
20035;DHT22;10178;48.034;9.800;2022-07-29T08:23:07;22.70;99.90
20035;DHT22;10178;48.034;9.800;2022-07-29T08:25:36;22.70;99.90
20035;DHT22;10178;48.034;9.800;2022-07-29T08:28:03;22.80;99.90
20035;DHT22;10178;48.034;9.800;2022-07-29T08:30:29;22.90;99.90
20035;DHT22;10178;48.034;9.800;2022-07-29T08:32:54;22.90;99.90
20035;DHT22;10178;48.034;9.800;2022-07-29T08:35:21;23.00;99.90
20035;DHT22;10178;48.034;9.800;2022-07-29T08:37:47;23.00;99.90
20035;DHT22;10178;48.034;9.800;2022-07-29T08:40:12;22.90;99.90
20035;DHT22;10178;48.034;9.800;2022-07-29T08:42:39;22.80;99.90
20035;DHT22;10178;48.034;9.800;2022-07-29T08:45:06;22.80;99.90
20035;DHT22;10178;48.034;9.800;2022-07-29T08:47:33;22.90;99.90
20035;DHT22;10178;48.034;9.800;2022-07-29T08:49:59;23.10;99.90
20035;DHT22;10178;48.034;9.800;2022-07-29T08:52:25;23.20;99.90
20035;DHT22;10178;48.034;9.800;2022-07-29T08:54:52;23.30;99.90
20035;DHT22;10178;48.034;9.800;2022-07-29T08:57:19;23.40;99.90
20035;DHT22;10178;48.034;9.800;2022-07-29T08:59:46;23.50;99.90
20035;DHT22;10178;48.034;9.800;2022-07-29T09:02:19;23.40;99.90
20035;DHT22;10178;48.034;9.800;2022-07-29T09:04:45;23.40;99.90
20035;DHT22;10178;48.034;9.800;2022-07-29T09:07:15;23.40;99.90
20035;DHT22;10178;48.034;9.800;2022-07-29T09:09:40;23.40;99.90
20035;DHT22;10178;48.034;9.800;2022-07-29T09:12:06;23.40;99.90
20035;DHT22;10178;48.034;9.800;2022-07-29T09:14:33;23.30;99.90
20035;DHT22;10178;48.034;9.800;2022-07-29T09:16:59;23.40;99.90
20035;DHT22;10178;48.034;9.800;2022-07-29T09:21:53;23.00;99.90
20035;DHT22;10178;48.034;9.800;2022-07-29T09:27:00;23.40;99.90
20035;DHT22;10178;48.034;9.800;2022-07-29T09:29:27;23.50;99.90
20035;DHT22;10178;48.034;9.800;2022-07-29T09:31:54;23.80;99.90
20035;DHT22;10178;48.034;9.800;2022-07-29T09:34:28;24.00;99.90
20035;DHT22;10178;48.034;9.800;2022-07-29T09:36:56;24.10;99.90
20035;DHT22;10178;48.034;9.800;2022-07-29T09:39:38;24.20;99.90
20035;DHT22;10178;48.034;9.800;2022-07-29T09:42:14;24.20;99.90
20035;DHT22;10178;48.034;9.800;2022-07-29T09:44:52;24.00;99.90
20035;DHT22;10178;48.034;9.800;2022-07-29T09:47:19;23.90;99.90
20035;DHT22;10178;48.034;9.800;2022-07-29T09:49:57;23.70;99.90
20035;DHT22;10178;48.034;9.800;2022-07-29T09:52:29;23.70;99.90
20035;DHT22;10178;48.034;9.800;2022-07-29T09:55:09;23.70;99.90
20035;DHT22;10178;48.034;9.800;2022-07-29T09:57:35;23.80;99.90
20035;DHT22;10178;48.034;9.800;2022-07-29T10:02:33;24.00;99.90
20035;DHT22;10178;48.034;9.800;2022-07-29T10:04:59;24.20;99.90
20035;DHT22;10178;48.034;9.800;2022-07-29T10:07:26;24.10;99.90
20035;DHT22;10178;48.034;9.800;2022-07-29T10:09:56;24.10;99.90
20035;DHT22;10178;48.034;9.800;2022-07-29T10:12:23;24.20;99.90
20035;DHT22;10178;48.034;9.800;2022-07-29T10:14:50;24.20;99.90
20035;DHT22;10178;48.034;9.800;2022-07-29T10:17:16;24.30;99.90
20035;DHT22;10178;48.034;9.800;2022-07-29T10:19:43;24.20;99.90
20035;DHT22;10178;48.034;9.800;2022-07-29T10:22:10;24.20;99.90
20035;DHT22;10178;48.034;9.800;2022-07-29T10:24:37;24.20;99.90
20035;DHT22;10178;48.034;9.800;2022-07-29T10:27:06;24.30;99.90
20035;DHT22;10178;48.034;9.800;2022-07-29T10:29:32;24.30;99.90
20035;DHT22;10178;48.034;9.800;2022-07-29T10:32:26;24.10;99.90
20035;DHT22;10178;48.034;9.800;2022-07-29T10:43:33;23.50;99.90
20035;DHT22;10178;48.034;9.800;2022-07-29T10:46:02;23.30;99.90
20035;DHT22;10178;48.034;9.800;2022-07-29T10:48:29;23.20;99.90
20035;DHT22;10178;48.034;9.800;2022-07-29T10:50:58;23.30;99.90
20035;DHT22;10178;48.034;9.800;2022-07-29T10:53:46;23.50;99.90
20035;DHT22;10178;48.034;9.800;2022-07-29T10:56:31;23.00;99.90
20035;DHT22;10178;48.034;9.800;2022-07-29T11:01:47;22.70;99.90
20035;DHT22;10178;48.034;9.800;2022-07-29T11:04:15;23.00;99.90
20035;DHT22;10178;48.034;9.800;2022-07-29T11:09:28;23.20;99.90
20035;DHT22;10178;48.034;9.800;2022-07-29T11:11:56;22.90;99.90
20035;DHT22;10178;48.034;9.800;2022-07-29T11:17:15;23.00;99.90
20035;DHT22;10178;48.034;9.800;2022-07-29T11:19:41;23.20;99.90
20035;DHT22;10178;48.034;9.800;2022-07-29T11:22:08;23.20;99.90
20035;DHT22;10178;48.034;9.800;2022-07-29T11:24:34;23.30;99.90
20035;DHT22;10178;48.034;9.800;2022-07-29T11:27:11;23.20;99.90
20035;DHT22;10178;48.034;9.800;2022-07-29T11:29:58;22.80;99.90
20035;DHT22;10178;48.034;9.800;2022-07-29T11:32:39;22.40;99.90
20035;DHT22;10178;48.034;9.800;2022-07-29T11:35:22;22.30;99.90
20035;DHT22;10178;48.034;9.800;2022-07-29T11:41:26;22.50;99.90
20035;DHT22;10178;48.034;9.800;2022-07-29T11:43:59;22.50;99.90
20035;DHT22;10178;48.034;9.800;2022-07-29T11:49:11;22.70;99.90
20035;DHT22;10178;48.034;9.800;2022-07-29T11:51:37;22.90;99.90
20035;DHT22;10178;48.034;9.800;2022-07-29T11:54:04;23.20;99.90
20035;DHT22;10178;48.034;9.800;2022-07-29T11:56:31;23.30;99.90
20035;DHT22;10178;48.034;9.800;2022-07-29T11:59:05;23.40;99.90
20035;DHT22;10178;48.034;9.800;2022-07-29T12:01:31;23.40;99.90
20035;DHT22;10178;48.034;9.800;2022-07-29T12:04:07;23.40;99.90
20035;DHT22;10178;48.034;9.800;2022-07-29T12:06:36;23.30;99.90
20035;DHT22;10178;48.034;9.800;2022-07-29T12:09:07;23.30;99.90
20035;DHT22;10178;48.034;9.800;2022-07-29T12:11:33;23.50;99.90
20035;DHT22;10178;48.034;9.800;2022-07-29T12:13:59;23.50;99.90
20035;DHT22;10178;48.034;9.800;2022-07-29T12:16:35;23.50;99.90
20035;DHT22;10178;48.034;9.800;2022-07-29T12:19:03;23.70;99.90
20035;DHT22;10178;48.034;9.800;2022-07-29T12:21:53;23.80;99.90
20035;DHT22;10178;48.034;9.800;2022-07-29T12:24:20;23.90;99.90
20035;DHT22;10178;48.034;9.800;2022-07-29T12:26:57;23.70;99.90
20035;DHT22;10178;48.034;9.800;2022-07-29T12:29:23;23.30;99.90
20035;DHT22;10178;48.034;9.800;2022-07-29T12:31:53;23.60;99.90
20035;DHT22;10178;48.034;9.800;2022-07-29T12:34:21;23.70;99.90
20035;DHT22;10178;48.034;9.800;2022-07-29T12:36:48;24.00;99.90
20035;DHT22;10178;48.034;9.800;2022-07-29T12:39:15;23.90;99.90
20035;DHT22;10178;48.034;9.800;2022-07-29T12:41:43;23.90;99.90
20035;DHT22;10178;48.034;9.800;2022-07-29T12:44:09;24.10;99.90
20035;DHT22;10178;48.034;9.800;2022-07-29T12:46:35;24.10;99.90
20035;DHT22;10178;48.034;9.800;2022-07-29T12:49:00;24.00;99.90
20035;DHT22;10178;48.034;9.800;2022-07-29T12:51:37;23.80;99.90
20035;DHT22;10178;48.034;9.800;2022-07-29T12:54:12;24.00;99.90
20035;DHT22;10178;48.034;9.800;2022-07-29T12:56:43;24.00;99.90
20035;DHT22;10178;48.034;9.800;2022-07-29T12:59:17;24.10;99.90
20035;DHT22;10178;48.034;9.800;2022-07-29T13:01:44;24.00;99.90
20035;DHT22;10178;48.034;9.800;2022-07-29T13:04:10;24.00;99.90
20035;DHT22;10178;48.034;9.800;2022-07-29T13:06:44;24.20;99.90
20035;DHT22;10178;48.034;9.800;2022-07-29T13:09:15;24.20;99.90
20035;DHT22;10178;48.034;9.800;2022-07-29T13:11:52;24.20;99.90
20035;DHT22;10178;48.034;9.800;2022-07-29T13:17:08;24.50;99.90
20035;DHT22;10178;48.034;9.800;2022-07-29T13:19:51;24.50;99.90
20035;DHT22;10178;48.034;9.800;2022-07-29T13:22:22;24.60;99.90
20035;DHT22;10178;48.034;9.800;2022-07-29T13:24:53;24.60;99.90
20035;DHT22;10178;48.034;9.800;2022-07-29T13:27:27;24.70;99.90
20035;DHT22;10178;48.034;9.800;2022-07-29T13:29:55;24.70;99.90
20035;DHT22;10178;48.034;9.800;2022-07-29T13:32:26;24.80;99.90
20035;DHT22;10178;48.034;9.800;2022-07-29T13:34:52;24.80;99.90
20035;DHT22;10178;48.034;9.800;2022-07-29T13:37:19;24.70;99.90
20035;DHT22;10178;48.034;9.800;2022-07-29T13:39:44;24.70;99.90
20035;DHT22;10178;48.034;9.800;2022-07-29T13:42:11;24.70;99.90
20035;DHT22;10178;48.034;9.800;2022-07-29T13:44:39;24.80;99.90
20035;DHT22;10178;48.034;9.800;2022-07-29T13:47:05;24.80;99.90
20035;DHT22;10178;48.034;9.800;2022-07-29T13:49:31;24.90;99.90
20035;DHT22;10178;48.034;9.800;2022-07-29T13:51:57;24.90;99.90
20035;DHT22;10178;48.034;9.800;2022-07-29T13:54:22;24.80;99.90
20035;DHT22;10178;48.034;9.800;2022-07-29T13:56:50;24.80;99.90
20035;DHT22;10178;48.034;9.800;2022-07-29T13:59:15;24.70;99.90
20035;DHT22;10178;48.034;9.800;2022-07-29T14:01:41;24.70;99.90
20035;DHT22;10178;48.034;9.800;2022-07-29T14:04:08;24.70;99.90
20035;DHT22;10178;48.034;9.800;2022-07-29T14:06:34;24.70;99.90
20035;DHT22;10178;48.034;9.800;2022-07-29T14:09:00;24.60;99.90
20035;DHT22;10178;48.034;9.800;2022-07-29T14:11:25;24.60;99.90
20035;DHT22;10178;48.034;9.800;2022-07-29T14:13:51;24.60;99.90
20035;DHT22;10178;48.034;9.800;2022-07-29T14:16:16;24.50;99.90
20035;DHT22;10178;48.034;9.800;2022-07-29T14:18:42;24.40;99.90
20035;DHT22;10178;48.034;9.800;2022-07-29T14:21:08;24.50;99.90
20035;DHT22;10178;48.034;9.800;2022-07-29T14:23:34;24.30;99.90
20035;DHT22;10178;48.034;9.800;2022-07-29T14:26:00;24.30;99.90
20035;DHT22;10178;48.034;9.800;2022-07-29T14:28:25;24.30;99.90
20035;DHT22;10178;48.034;9.800;2022-07-29T14:30:51;24.30;99.90
20035;DHT22;10178;48.034;9.800;2022-07-29T14:33:17;24.20;99.90
20035;DHT22;10178;48.034;9.800;2022-07-29T14:35:43;24.20;99.90
20035;DHT22;10178;48.034;9.800;2022-07-29T14:38:09;24.30;99.90
20035;DHT22;10178;48.034;9.800;2022-07-29T14:40:35;24.40;99.90
20035;DHT22;10178;48.034;9.800;2022-07-29T14:43:01;24.40;99.90
20035;DHT22;10178;48.034;9.800;2022-07-29T14:45:28;24.30;99.90
20035;DHT22;10178;48.034;9.800;2022-07-29T14:47:54;24.20;99.90
20035;DHT22;10178;48.034;9.800;2022-07-29T14:50:19;24.20;99.90
20035;DHT22;10178;48.034;9.800;2022-07-29T14:52:45;24.20;99.90
20035;DHT22;10178;48.034;9.800;2022-07-29T14:55:11;24.00;99.90
20035;DHT22;10178;48.034;9.800;2022-07-29T14:57:37;24.00;99.90
20035;DHT22;10178;48.034;9.800;2022-07-29T15:00:06;23.80;99.90
20035;DHT22;10178;48.034;9.800;2022-07-29T15:02:33;23.60;99.90
20035;DHT22;10178;48.034;9.800;2022-07-29T15:04:58;23.50;99.90
20035;DHT22;10178;48.034;9.800;2022-07-29T15:07:24;23.40;99.90
20035;DHT22;10178;48.034;9.800;2022-07-29T15:09:50;23.40;99.90
20035;DHT22;10178;48.034;9.800;2022-07-29T15:12:16;23.30;99.90
20035;DHT22;10178;48.034;9.800;2022-07-29T15:14:41;23.30;99.90
20035;DHT22;10178;48.034;9.800;2022-07-29T15:17:07;23.30;99.90
20035;DHT22;10178;48.034;9.800;2022-07-29T15:19:33;23.20;99.90
20035;DHT22;10178;48.034;9.800;2022-07-29T15:21:59;23.20;99.90
20035;DHT22;10178;48.034;9.800;2022-07-29T15:24:25;22.80;99.90
20035;DHT22;10178;48.034;9.800;2022-07-29T15:26:50;21.90;99.90
20035;DHT22;10178;48.034;9.800;2022-07-29T15:29:16;20.50;99.90
20035;DHT22;10178;48.034;9.800;2022-07-29T15:31:43;19.80;99.90
20035;DHT22;10178;48.034;9.800;2022-07-29T15:34:09;19.40;99.90
20035;DHT22;10178;48.034;9.800;2022-07-29T15:36:35;19.20;99.90
20035;DHT22;10178;48.034;9.800;2022-07-29T15:39:00;19.20;99.90
20035;DHT22;10178;48.034;9.800;2022-07-29T15:41:46;19.10;99.90
20035;DHT22;10178;48.034;9.800;2022-07-29T15:44:12;18.90;99.90
20035;DHT22;10178;48.034;9.800;2022-07-29T15:46:38;18.60;99.90
20035;DHT22;10178;48.034;9.800;2022-07-29T15:49:22;18.50;99.90
20035;DHT22;10178;48.034;9.800;2022-07-29T15:51:47;18.60;99.90
20035;DHT22;10178;48.034;9.800;2022-07-29T15:54:13;18.90;99.90
20035;DHT22;10178;48.034;9.800;2022-07-29T15:56:39;19.60;99.90
20035;DHT22;10178;48.034;9.800;2022-07-29T15:59:04;20.50;99.90
20035;DHT22;10178;48.034;9.800;2022-07-29T16:01:30;21.20;99.90
20035;DHT22;10178;48.034;9.800;2022-07-29T16:03:57;21.60;99.90
20035;DHT22;10178;48.034;9.800;2022-07-29T16:06:22;21.80;99.90
20035;DHT22;10178;48.034;9.800;2022-07-29T16:08:48;20.80;99.90
20035;DHT22;10178;48.034;9.800;2022-07-29T16:11:13;20.50;99.90
20035;DHT22;10178;48.034;9.800;2022-07-29T16:13:39;20.10;99.90
20035;DHT22;10178;48.034;9.800;2022-07-29T16:16:05;20.00;99.90